sensor_id;sensor_type;location;lat;lon;timestamp;P1;durP1;ratioP1;P2;durP2;ratioP2
64401;SDS011;50724;42.376;23.768;2023-06-19T00:00:26;8.80;;;5.22;;
64401;SDS011;50724;42.376;23.768;2023-06-19T00:03:26;9.48;;;5.57;;
64401;SDS011;50724;42.376;23.768;2023-06-19T00:06:27;8.87;;;5.23;;
64401;SDS011;50724;42.376;23.768;2023-06-19T00:09:28;10.88;;;5.65;;
64401;SDS011;50724;42.376;23.768;2023-06-19T00:12:28;12.07;;;6.43;;
64401;SDS011;50724;42.376;23.768;2023-06-19T00:15:29;11.65;;;6.10;;
64401;SDS011;50724;42.376;23.768;2023-06-19T00:18:30;9.43;;;5.97;;
64401;SDS011;50724;42.376;23.768;2023-06-19T00:21:30;9.00;;;5.38;;
64401;SDS011;50724;42.376;23.768;2023-06-19T00:24:31;9.07;;;5.70;;
64401;SDS011;50724;42.376;23.768;2023-06-19T00:27:31;10.53;;;5.43;;
64401;SDS011;50724;42.376;23.768;2023-06-19T00:30:32;9.43;;;5.38;;
64401;SDS011;50724;42.376;23.768;2023-06-19T00:33:33;9.48;;;5.60;;
64401;SDS011;50724;42.376;23.768;2023-06-19T00:36:33;10.37;;;5.40;;
64401;SDS011;50724;42.376;23.768;2023-06-19T00:39:40;10.15;;;5.85;;
64401;SDS011;50724;42.376;23.768;2023-06-19T00:42:41;12.50;;;6.03;;
64401;SDS011;50724;42.376;23.768;2023-06-19T00:45:41;9.20;;;5.73;;
64401;SDS011;50724;42.376;23.768;2023-06-19T00:48:41;9.43;;;5.93;;
64401;SDS011;50724;42.376;23.768;2023-06-19T00:51:42;9.48;;;5.68;;
64401;SDS011;50724;42.376;23.768;2023-06-19T00:54:43;9.45;;;5.78;;
64401;SDS011;50724;42.376;23.768;2023-06-19T00:57:44;11.65;;;5.60;;
64401;SDS011;50724;42.376;23.768;2023-06-19T01:00:45;10.15;;;5.97;;
64401;SDS011;50724;42.376;23.768;2023-06-19T01:03:45;11.00;;;5.82;;
64401;SDS011;50724;42.376;23.768;2023-06-19T01:07:00;11.43;;;6.07;;
64401;SDS011;50724;42.376;23.768;2023-06-19T01:10:11;9.52;;;5.60;;
64401;SDS011;50724;42.376;23.768;2023-06-19T01:13:17;10.52;;;5.43;;
64401;SDS011;50724;42.376;23.768;2023-06-19T01:16:22;13.13;;;6.07;;
64401;SDS011;50724;42.376;23.768;2023-06-19T01:19:23;11.70;;;5.70;;
64401;SDS011;50724;42.376;23.768;2023-06-19T01:22:26;11.43;;;6.10;;
64401;SDS011;50724;42.376;23.768;2023-06-19T01:25:30;10.07;;;5.93;;
64401;SDS011;50724;42.376;23.768;2023-06-19T01:28:30;9.23;;;5.60;;
64401;SDS011;50724;42.376;23.768;2023-06-19T01:31:33;9.10;;;5.78;;
64401;SDS011;50724;42.376;23.768;2023-06-19T01:34:36;14.23;;;5.63;;
64401;SDS011;50724;42.376;23.768;2023-06-19T01:37:38;10.20;;;5.85;;
64401;SDS011;50724;42.376;23.768;2023-06-19T01:40:40;8.55;;;5.63;;
64401;SDS011;50724;42.376;23.768;2023-06-19T01:43:41;8.13;;;5.38;;
64401;SDS011;50724;42.376;23.768;2023-06-19T01:46:42;9.85;;;5.43;;
64401;SDS011;50724;42.376;23.768;2023-06-19T01:49:42;8.57;;;4.75;;
64401;SDS011;50724;42.376;23.768;2023-06-19T01:52:43;9.65;;;5.63;;
64401;SDS011;50724;42.376;23.768;2023-06-19T01:55:44;8.07;;;5.15;;
64401;SDS011;50724;42.376;23.768;2023-06-19T01:58:45;10.77;;;5.95;;
64401;SDS011;50724;42.376;23.768;2023-06-19T02:01:46;9.70;;;5.23;;
64401;SDS011;50724;42.376;23.768;2023-06-19T02:04:46;7.80;;;5.23;;
64401;SDS011;50724;42.376;23.768;2023-06-19T02:07:46;11.30;;;5.37;;
64401;SDS011;50724;42.376;23.768;2023-06-19T02:10:47;9.50;;;4.75;;
64401;SDS011;50724;42.376;23.768;2023-06-19T02:13:47;8.70;;;5.20;;
64401;SDS011;50724;42.376;23.768;2023-06-19T02:16:48;9.98;;;5.15;;
64401;SDS011;50724;42.376;23.768;2023-06-19T02:19:48;8.25;;;5.28;;
64401;SDS011;50724;42.376;23.768;2023-06-19T02:22:49;8.38;;;5.03;;
64401;SDS011;50724;42.376;23.768;2023-06-19T02:25:50;8.20;;;4.57;;
64401;SDS011;50724;42.376;23.768;2023-06-19T02:28:50;8.32;;;4.68;;
64401;SDS011;50724;42.376;23.768;2023-06-19T02:31:51;7.93;;;5.00;;
64401;SDS011;50724;42.376;23.768;2023-06-19T02:34:52;7.82;;;5.07;;
64401;SDS011;50724;42.376;23.768;2023-06-19T02:37:52;12.53;;;5.07;;
64401;SDS011;50724;42.376;23.768;2023-06-19T02:40:52;10.17;;;5.33;;
64401;SDS011;50724;42.376;23.768;2023-06-19T02:43:53;9.07;;;5.22;;
64401;SDS011;50724;42.376;23.768;2023-06-19T02:46:53;8.15;;;5.00;;
64401;SDS011;50724;42.376;23.768;2023-06-19T02:49:54;9.33;;;4.60;;
64401;SDS011;50724;42.376;23.768;2023-06-19T02:53:03;8.50;;;5.05;;
64401;SDS011;50724;42.376;23.768;2023-06-19T02:56:04;9.23;;;5.23;;
64401;SDS011;50724;42.376;23.768;2023-06-19T02:59:04;12.75;;;5.07;;
64401;SDS011;50724;42.376;23.768;2023-06-19T03:02:04;8.23;;;4.95;;
64401;SDS011;50724;42.376;23.768;2023-06-19T03:05:05;9.40;;;5.63;;
64401;SDS011;50724;42.376;23.768;2023-06-19T03:08:05;8.70;;;5.53;;
64401;SDS011;50724;42.376;23.768;2023-06-19T03:11:15;9.02;;;5.15;;
64401;SDS011;50724;42.376;23.768;2023-06-19T03:14:16;11.98;;;5.60;;
64401;SDS011;50724;42.376;23.768;2023-06-19T03:17:16;9.37;;;6.07;;
64401;SDS011;50724;42.376;23.768;2023-06-19T03:20:17;11.07;;;5.13;;
64401;SDS011;50724;42.376;23.768;2023-06-19T03:23:17;11.05;;;5.60;;
64401;SDS011;50724;42.376;23.768;2023-06-19T03:26:18;8.67;;;4.93;;
64401;SDS011;50724;42.376;23.768;2023-06-19T03:29:19;9.50;;;5.50;;
64401;SDS011;50724;42.376;23.768;2023-06-19T03:32:19;8.73;;;5.37;;
64401;SDS011;50724;42.376;23.768;2023-06-19T03:35:20;8.48;;;5.45;;
64401;SDS011;50724;42.376;23.768;2023-06-19T03:38:20;13.40;;;5.33;;
64401;SDS011;50724;42.376;23.768;2023-06-19T03:41:21;8.45;;;5.28;;
64401;SDS011;50724;42.376;23.768;2023-06-19T03:44:21;8.90;;;5.00;;
64401;SDS011;50724;42.376;23.768;2023-06-19T03:47:21;11.07;;;5.10;;
64401;SDS011;50724;42.376;23.768;2023-06-19T03:50:22;8.03;;;5.27;;
64401;SDS011;50724;42.376;23.768;2023-06-19T03:53:22;8.20;;;5.32;;
64401;SDS011;50724;42.376;23.768;2023-06-19T03:56:23;8.52;;;5.00;;
64401;SDS011;50724;42.376;23.768;2023-06-19T03:59:23;7.80;;;4.88;;
64401;SDS011;50724;42.376;23.768;2023-06-19T04:02:24;9.82;;;5.10;;
64401;SDS011;50724;42.376;23.768;2023-06-19T04:05:25;8.45;;;5.18;;
64401;SDS011;50724;42.376;23.768;2023-06-19T04:08:26;10.80;;;5.28;;
64401;SDS011;50724;42.376;23.768;2023-06-19T04:11:26;9.33;;;5.17;;
64401;SDS011;50724;42.376;23.768;2023-06-19T04:14:26;7.72;;;5.05;;
64401;SDS011;50724;42.376;23.768;2023-06-19T04:17:27;10.98;;;4.93;;
64401;SDS011;50724;42.376;23.768;2023-06-19T04:20:27;7.28;;;4.60;;
64401;SDS011;50724;42.376;23.768;2023-06-19T04:23:28;7.83;;;5.03;;
64401;SDS011;50724;42.376;23.768;2023-06-19T04:26:28;8.90;;;5.20;;
64401;SDS011;50724;42.376;23.768;2023-06-19T04:29:28;6.50;;;4.63;;
64401;SDS011;50724;42.376;23.768;2023-06-19T04:32:32;7.47;;;4.85;;
64401;SDS011;50724;42.376;23.768;2023-06-19T04:35:34;8.73;;;4.55;;
64401;SDS011;50724;42.376;23.768;2023-06-19T04:38:40;6.65;;;4.18;;
64401;SDS011;50724;42.376;23.768;2023-06-19T04:41:41;6.53;;;4.03;;
64401;SDS011;50724;42.376;23.768;2023-06-19T04:44:43;9.18;;;4.13;;
64401;SDS011;50724;42.376;23.768;2023-06-19T04:47:44;7.87;;;4.57;;
64401;SDS011;50724;42.376;23.768;2023-06-19T04:50:44;9.70;;;4.70;;
64401;SDS011;50724;42.376;23.768;2023-06-19T04:53:44;6.93;;;4.25;;
64401;SDS011;50724;42.376;23.768;2023-06-19T04:56:45;5.93;;;4.23;;
64401;SDS011;50724;42.376;23.768;2023-06-19T04:59:45;6.90;;;4.10;;
64401;SDS011;50724;42.376;23.768;2023-06-19T05:02:46;7.93;;;4.83;;
64401;SDS011;50724;42.376;23.768;2023-06-19T05:05:47;8.63;;;4.60;;
64401;SDS011;50724;42.376;23.768;2023-06-19T05:08:47;6.70;;;4.20;;
64401;SDS011;50724;42.376;23.768;2023-06-19T05:11:48;6.97;;;4.17;;
64401;SDS011;50724;42.376;23.768;2023-06-19T05:14:48;7.65;;;4.35;;
64401;SDS011;50724;42.376;23.768;2023-06-19T05:17:49;6.68;;;4.00;;
64401;SDS011;50724;42.376;23.768;2023-06-19T05:20:49;8.10;;;4.30;;
64401;SDS011;50724;42.376;23.768;2023-06-19T05:23:50;11.98;;;5.05;;
64401;SDS011;50724;42.376;23.768;2023-06-19T05:26:50;6.90;;;4.68;;
64401;SDS011;50724;42.376;23.768;2023-06-19T05:29:51;7.17;;;4.53;;
64401;SDS011;50724;42.376;23.768;2023-06-19T05:32:51;8.33;;;5.03;;
64401;SDS011;50724;42.376;23.768;2023-06-19T05:35:52;8.82;;;4.60;;
64401;SDS011;50724;42.376;23.768;2023-06-19T05:38:52;8.15;;;4.75;;
64401;SDS011;50724;42.376;23.768;2023-06-19T05:41:53;8.55;;;5.28;;
64401;SDS011;50724;42.376;23.768;2023-06-19T05:44:53;8.93;;;4.97;;
64401;SDS011;50724;42.376;23.768;2023-06-19T05:47:53;7.97;;;4.90;;
64401;SDS011;50724;42.376;23.768;2023-06-19T05:50:54;9.90;;;5.00;;
64401;SDS011;50724;42.376;23.768;2023-06-19T05:53:54;8.48;;;4.70;;
64401;SDS011;50724;42.376;23.768;2023-06-19T05:56:59;7.50;;;5.03;;
64401;SDS011;50724;42.376;23.768;2023-06-19T06:00:00;6.63;;;4.63;;
64401;SDS011;50724;42.376;23.768;2023-06-19T06:03:00;9.53;;;4.83;;
64401;SDS011;50724;42.376;23.768;2023-06-19T06:06:02;7.05;;;4.35;;
64401;SDS011;50724;42.376;23.768;2023-06-19T06:09:03;8.27;;;4.85;;
64401;SDS011;50724;42.376;23.768;2023-06-19T06:12:04;6.72;;;4.68;;
64401;SDS011;50724;42.376;23.768;2023-06-19T06:15:05;6.97;;;4.47;;
64401;SDS011;50724;42.376;23.768;2023-06-19T06:18:06;8.60;;;4.60;;
64401;SDS011;50724;42.376;23.768;2023-06-19T06:21:06;6.82;;;4.40;;
64401;SDS011;50724;42.376;23.768;2023-06-19T06:24:07;8.40;;;4.83;;
64401;SDS011;50724;42.376;23.768;2023-06-19T06:27:07;7.55;;;4.65;;
64401;SDS011;50724;42.376;23.768;2023-06-19T06:30:08;8.45;;;4.55;;
64401;SDS011;50724;42.376;23.768;2023-06-19T06:33:09;8.23;;;4.63;;
64401;SDS011;50724;42.376;23.768;2023-06-19T06:36:09;6.07;;;4.25;;
64401;SDS011;50724;42.376;23.768;2023-06-19T06:39:10;8.15;;;4.70;;
64401;SDS011;50724;42.376;23.768;2023-06-19T06:42:11;6.25;;;4.18;;
64401;SDS011;50724;42.376;23.768;2023-06-19T06:45:11;6.90;;;4.30;;
64401;SDS011;50724;42.376;23.768;2023-06-19T06:48:11;9.33;;;4.03;;
64401;SDS011;50724;42.376;23.768;2023-06-19T06:51:12;7.22;;;3.90;;
64401;SDS011;50724;42.376;23.768;2023-06-19T06:54:12;6.73;;;4.37;;
64401;SDS011;50724;42.376;23.768;2023-06-19T06:57:13;7.40;;;4.35;;
64401;SDS011;50724;42.376;23.768;2023-06-19T07:00:13;6.93;;;4.00;;
64401;SDS011;50724;42.376;23.768;2023-06-19T07:03:14;6.20;;;3.90;;
64401;SDS011;50724;42.376;23.768;2023-06-19T07:06:14;6.97;;;3.90;;
64401;SDS011;50724;42.376;23.768;2023-06-19T07:09:15;7.05;;;3.67;;
64401;SDS011;50724;42.376;23.768;2023-06-19T07:12:15;5.43;;;3.80;;
64401;SDS011;50724;42.376;23.768;2023-06-19T07:15:16;6.10;;;3.55;;
64401;SDS011;50724;42.376;23.768;2023-06-19T07:18:16;5.28;;;3.50;;
64401;SDS011;50724;42.376;23.768;2023-06-19T07:21:17;7.22;;;4.00;;
64401;SDS011;50724;42.376;23.768;2023-06-19T07:24:17;6.30;;;3.33;;
64401;SDS011;50724;42.376;23.768;2023-06-19T07:27:18;5.70;;;3.33;;
64401;SDS011;50724;42.376;23.768;2023-06-19T07:30:19;6.78;;;3.92;;
64401;SDS011;50724;42.376;23.768;2023-06-19T07:33:19;7.47;;;4.18;;
64401;SDS011;50724;42.376;23.768;2023-06-19T07:36:19;5.37;;;3.60;;
64401;SDS011;50724;42.376;23.768;2023-06-19T07:39:20;5.47;;;3.60;;
64401;SDS011;50724;42.376;23.768;2023-06-19T07:42:20;6.07;;;3.80;;
64401;SDS011;50724;42.376;23.768;2023-06-19T07:45:21;6.38;;;3.53;;
64401;SDS011;50724;42.376;23.768;2023-06-19T07:48:23;6.15;;;4.00;;
64401;SDS011;50724;42.376;23.768;2023-06-19T07:51:24;5.72;;;3.80;;
64401;SDS011;50724;42.376;23.768;2023-06-19T07:54:24;6.35;;;3.92;;
64401;SDS011;50724;42.376;23.768;2023-06-19T07:57:25;7.95;;;3.85;;
64401;SDS011;50724;42.376;23.768;2023-06-19T08:00:26;8.35;;;4.03;;
64401;SDS011;50724;42.376;23.768;2023-06-19T08:03:27;6.03;;;3.83;;
64401;SDS011;50724;42.376;23.768;2023-06-19T08:06:27;5.70;;;3.40;;
64401;SDS011;50724;42.376;23.768;2023-06-19T08:09:27;7.53;;;3.78;;
64401;SDS011;50724;42.376;23.768;2023-06-19T08:12:28;7.57;;;3.87;;
64401;SDS011;50724;42.376;23.768;2023-06-19T08:15:28;6.97;;;3.43;;
64401;SDS011;50724;42.376;23.768;2023-06-19T08:18:29;7.90;;;3.90;;
64401;SDS011;50724;42.376;23.768;2023-06-19T08:21:29;6.00;;;3.70;;
64401;SDS011;50724;42.376;23.768;2023-06-19T08:24:29;5.65;;;3.70;;
64401;SDS011;50724;42.376;23.768;2023-06-19T08:27:30;6.65;;;3.92;;
64401;SDS011;50724;42.376;23.768;2023-06-19T08:30:30;7.10;;;3.73;;
64401;SDS011;50724;42.376;23.768;2023-06-19T08:33:31;5.87;;;3.67;;
64401;SDS011;50724;42.376;23.768;2023-06-19T08:36:31;5.37;;;3.50;;
64401;SDS011;50724;42.376;23.768;2023-06-19T08:39:32;6.70;;;3.80;;
64401;SDS011;50724;42.376;23.768;2023-06-19T08:42:42;5.13;;;3.45;;
64401;SDS011;50724;42.376;23.768;2023-06-19T08:45:43;6.55;;;3.92;;
64401;SDS011;50724;42.376;23.768;2023-06-19T08:48:44;5.65;;;3.55;;
64401;SDS011;50724;42.376;23.768;2023-06-19T08:51:45;6.82;;;3.78;;
64401;SDS011;50724;42.376;23.768;2023-06-19T08:54:45;6.10;;;3.42;;
64401;SDS011;50724;42.376;23.768;2023-06-19T08:57:47;6.22;;;3.78;;
64401;SDS011;50724;42.376;23.768;2023-06-19T09:00:49;8.75;;;4.07;;
64401;SDS011;50724;42.376;23.768;2023-06-19T09:03:50;9.05;;;3.90;;
64401;SDS011;50724;42.376;23.768;2023-06-19T09:06:58;7.97;;;3.47;;
64401;SDS011;50724;42.376;23.768;2023-06-19T09:10:00;6.15;;;3.95;;
64401;SDS011;50724;42.376;23.768;2023-06-19T09:13:23;6.22;;;4.05;;
64401;SDS011;50724;42.376;23.768;2023-06-19T09:16:23;6.82;;;4.07;;
64401;SDS011;50724;42.376;23.768;2023-06-19T09:19:36;8.48;;;4.20;;
64401;SDS011;50724;42.376;23.768;2023-06-19T09:22:37;6.75;;;4.00;;
64401;SDS011;50724;42.376;23.768;2023-06-19T09:25:47;6.85;;;3.53;;
64401;SDS011;50724;42.376;23.768;2023-06-19T09:28:57;6.15;;;3.88;;
64401;SDS011;50724;42.376;23.768;2023-06-19T09:31:58;7.15;;;4.10;;
64401;SDS011;50724;42.376;23.768;2023-06-19T09:34:58;6.65;;;3.80;;
64401;SDS011;50724;42.376;23.768;2023-06-19T09:37:59;6.50;;;4.17;;
64401;SDS011;50724;42.376;23.768;2023-06-19T09:41:02;7.57;;;4.07;;
64401;SDS011;50724;42.376;23.768;2023-06-19T09:44:04;6.30;;;3.80;;
64401;SDS011;50724;42.376;23.768;2023-06-19T09:47:16;6.13;;;3.47;;
64401;SDS011;50724;42.376;23.768;2023-06-19T09:50:23;8.45;;;4.25;;
64401;SDS011;50724;42.376;23.768;2023-06-19T09:53:27;6.03;;;4.05;;
64401;SDS011;50724;42.376;23.768;2023-06-19T09:56:28;6.03;;;3.88;;
64401;SDS011;50724;42.376;23.768;2023-06-19T09:59:29;6.88;;;3.80;;
64401;SDS011;50724;42.376;23.768;2023-06-19T10:02:29;7.07;;;3.75;;
64401;SDS011;50724;42.376;23.768;2023-06-19T10:05:30;7.03;;;3.92;;
64401;SDS011;50724;42.376;23.768;2023-06-19T10:11:46;6.40;;;4.22;;
64401;SDS011;50724;42.376;23.768;2023-06-19T10:14:48;8.43;;;3.85;;
64401;SDS011;50724;42.376;23.768;2023-06-19T10:17:50;7.28;;;3.78;;
64401;SDS011;50724;42.376;23.768;2023-06-19T10:20:50;6.28;;;3.67;;
64401;SDS011;50724;42.376;23.768;2023-06-19T10:23:55;10.13;;;3.90;;
64401;SDS011;50724;42.376;23.768;2023-06-19T10:27:00;6.18;;;4.00;;
64401;SDS011;50724;42.376;23.768;2023-06-19T10:30:02;7.85;;;3.90;;
64401;SDS011;50724;42.376;23.768;2023-06-19T10:33:04;8.82;;;4.15;;
64401;SDS011;50724;42.376;23.768;2023-06-19T10:39:19;7.88;;;4.07;;
64401;SDS011;50724;42.376;23.768;2023-06-19T10:42:20;7.10;;;3.70;;
64401;SDS011;50724;42.376;23.768;2023-06-19T10:45:21;6.95;;;4.10;;
64401;SDS011;50724;42.376;23.768;2023-06-19T10:48:28;7.72;;;3.47;;
64401;SDS011;50724;42.376;23.768;2023-06-19T10:51:28;5.00;;;3.50;;
64401;SDS011;50724;42.376;23.768;2023-06-19T10:54:29;6.30;;;3.60;;
64401;SDS011;50724;42.376;23.768;2023-06-19T10:57:30;7.85;;;3.50;;
64401;SDS011;50724;42.376;23.768;2023-06-19T11:00:32;5.72;;;3.03;;
64401;SDS011;50724;42.376;23.768;2023-06-19T11:03:33;5.57;;;2.90;;
64401;SDS011;50724;42.376;23.768;2023-06-19T11:06:34;7.22;;;3.35;;
64401;SDS011;50724;42.376;23.768;2023-06-19T11:09:36;7.32;;;3.25;;
64401;SDS011;50724;42.376;23.768;2023-06-19T11:12:36;6.37;;;3.30;;
64401;SDS011;50724;42.376;23.768;2023-06-19T11:15:36;5.57;;;3.13;;
64401;SDS011;50724;42.376;23.768;2023-06-19T11:18:37;5.93;;;3.17;;
64401;SDS011;50724;42.376;23.768;2023-06-19T11:21:37;4.47;;;2.78;;
64401;SDS011;50724;42.376;23.768;2023-06-19T11:24:45;6.18;;;3.33;;
64401;SDS011;50724;42.376;23.768;2023-06-19T11:27:46;5.25;;;3.30;;
64401;SDS011;50724;42.376;23.768;2023-06-19T11:30:57;5.80;;;2.97;;
64401;SDS011;50724;42.376;23.768;2023-06-19T11:33:59;6.32;;;3.47;;
64401;SDS011;50724;42.376;23.768;2023-06-19T11:37:22;5.32;;;3.05;;
64401;SDS011;50724;42.376;23.768;2023-06-19T11:40:22;6.93;;;3.42;;
64401;SDS011;50724;42.376;23.768;2023-06-19T11:43:23;6.00;;;3.00;;
64401;SDS011;50724;42.376;23.768;2023-06-19T11:46:28;5.75;;;3.58;;
64401;SDS011;50724;42.376;23.768;2023-06-19T11:49:34;5.68;;;3.40;;
64401;SDS011;50724;42.376;23.768;2023-06-19T11:52:44;6.63;;;3.10;;
64401;SDS011;50724;42.376;23.768;2023-06-19T11:55:45;6.13;;;2.75;;
64401;SDS011;50724;42.376;23.768;2023-06-19T11:58:45;5.68;;;2.88;;
64401;SDS011;50724;42.376;23.768;2023-06-19T12:01:46;4.97;;;2.67;;
64401;SDS011;50724;42.376;23.768;2023-06-19T12:04:46;5.65;;;2.80;;
64401;SDS011;50724;42.376;23.768;2023-06-19T12:07:47;7.88;;;2.85;;
64401;SDS011;50724;42.376;23.768;2023-06-19T12:10:47;4.30;;;2.67;;
64401;SDS011;50724;42.376;23.768;2023-06-19T12:13:48;4.28;;;2.40;;
64401;SDS011;50724;42.376;23.768;2023-06-19T12:16:48;4.60;;;2.63;;
64401;SDS011;50724;42.376;23.768;2023-06-19T12:19:49;5.17;;;2.87;;
64401;SDS011;50724;42.376;23.768;2023-06-19T12:22:50;6.28;;;2.88;;
64401;SDS011;50724;42.376;23.768;2023-06-19T12:25:50;4.95;;;3.00;;
64401;SDS011;50724;42.376;23.768;2023-06-19T12:28:51;5.77;;;3.07;;
64401;SDS011;50724;42.376;23.768;2023-06-19T12:31:51;4.57;;;2.58;;
64401;SDS011;50724;42.376;23.768;2023-06-19T12:34:52;6.17;;;3.23;;
64401;SDS011;50724;42.376;23.768;2023-06-19T12:37:54;5.00;;;3.17;;
64401;SDS011;50724;42.376;23.768;2023-06-19T12:40:55;4.88;;;3.13;;
64401;SDS011;50724;42.376;23.768;2023-06-19T12:43:55;5.93;;;2.97;;
64401;SDS011;50724;42.376;23.768;2023-06-19T12:46:56;6.13;;;3.40;;
64401;SDS011;50724;42.376;23.768;2023-06-19T12:49:58;4.90;;;3.10;;
64401;SDS011;50724;42.376;23.768;2023-06-19T12:52:58;6.80;;;3.23;;
64401;SDS011;50724;42.376;23.768;2023-06-19T12:55:59;8.65;;;3.15;;
64401;SDS011;50724;42.376;23.768;2023-06-19T12:59:00;6.30;;;3.75;;
64401;SDS011;50724;42.376;23.768;2023-06-19T13:02:00;7.25;;;3.40;;
64401;SDS011;50724;42.376;23.768;2023-06-19T13:05:01;5.38;;;3.15;;
64401;SDS011;50724;42.376;23.768;2023-06-19T13:08:01;4.63;;;3.05;;
64401;SDS011;50724;42.376;23.768;2023-06-19T13:11:02;5.28;;;3.25;;
64401;SDS011;50724;42.376;23.768;2023-06-19T13:14:05;5.53;;;3.35;;
64401;SDS011;50724;42.376;23.768;2023-06-19T13:17:06;5.72;;;3.47;;
64401;SDS011;50724;42.376;23.768;2023-06-19T13:20:07;6.40;;;3.90;;
64401;SDS011;50724;42.376;23.768;2023-06-19T13:23:07;7.97;;;3.45;;
64401;SDS011;50724;42.376;23.768;2023-06-19T13:26:08;5.28;;;3.30;;
64401;SDS011;50724;42.376;23.768;2023-06-19T13:29:09;6.43;;;3.92;;
64401;SDS011;50724;42.376;23.768;2023-06-19T13:32:10;8.27;;;3.80;;
64401;SDS011;50724;42.376;23.768;2023-06-19T13:35:10;8.43;;;4.05;;
64401;SDS011;50724;42.376;23.768;2023-06-19T13:38:11;6.27;;;3.27;;
64401;SDS011;50724;42.376;23.768;2023-06-19T13:41:11;5.93;;;3.42;;
64401;SDS011;50724;42.376;23.768;2023-06-19T13:44:12;8.05;;;4.35;;
64401;SDS011;50724;42.376;23.768;2023-06-19T13:47:12;5.90;;;3.60;;
64401;SDS011;50724;42.376;23.768;2023-06-19T13:50:13;7.75;;;4.38;;
64401;SDS011;50724;42.376;23.768;2023-06-19T13:53:18;5.90;;;3.67;;
64401;SDS011;50724;42.376;23.768;2023-06-19T13:56:19;5.60;;;3.53;;
64401;SDS011;50724;42.376;23.768;2023-06-19T13:59:20;6.38;;;3.28;;
64401;SDS011;50724;42.376;23.768;2023-06-19T14:02:20;5.80;;;3.67;;
64401;SDS011;50724;42.376;23.768;2023-06-19T14:05:21;5.80;;;3.47;;
64401;SDS011;50724;42.376;23.768;2023-06-19T14:08:21;8.60;;;3.78;;
64401;SDS011;50724;42.376;23.768;2023-06-19T14:11:22;5.57;;;3.50;;
64401;SDS011;50724;42.376;23.768;2023-06-19T14:14:22;6.53;;;3.47;;
64401;SDS011;50724;42.376;23.768;2023-06-19T14:17:23;5.15;;;3.00;;
64401;SDS011;50724;42.376;23.768;2023-06-19T14:20:23;5.75;;;3.22;;
64401;SDS011;50724;42.376;23.768;2023-06-19T14:23:33;8.00;;;3.70;;
64401;SDS011;50724;42.376;23.768;2023-06-19T14:26:38;6.57;;;3.50;;
64401;SDS011;50724;42.376;23.768;2023-06-19T14:29:39;7.00;;;3.95;;
64401;SDS011;50724;42.376;23.768;2023-06-19T14:32:39;6.70;;;4.03;;
64401;SDS011;50724;42.376;23.768;2023-06-19T14:35:41;9.52;;;3.88;;
64401;SDS011;50724;42.376;23.768;2023-06-19T14:38:43;6.00;;;3.38;;
64401;SDS011;50724;42.376;23.768;2023-06-19T14:41:44;6.60;;;3.97;;
64401;SDS011;50724;42.376;23.768;2023-06-19T14:44:44;6.03;;;3.53;;
64401;SDS011;50724;42.376;23.768;2023-06-19T14:47:45;8.55;;;4.25;;
64401;SDS011;50724;42.376;23.768;2023-06-19T14:50:45;7.07;;;3.80;;
64401;SDS011;50724;42.376;23.768;2023-06-19T14:53:46;6.03;;;3.85;;
64401;SDS011;50724;42.376;23.768;2023-06-19T14:56:46;6.47;;;3.83;;
64401;SDS011;50724;42.376;23.768;2023-06-19T14:59:48;6.07;;;3.50;;
64401;SDS011;50724;42.376;23.768;2023-06-19T15:02:48;6.13;;;3.92;;
64401;SDS011;50724;42.376;23.768;2023-06-19T15:05:49;6.68;;;3.95;;
64401;SDS011;50724;42.376;23.768;2023-06-19T15:08:49;8.27;;;3.77;;
64401;SDS011;50724;42.376;23.768;2023-06-19T15:11:49;6.13;;;3.63;;
64401;SDS011;50724;42.376;23.768;2023-06-19T15:14:50;7.30;;;4.03;;
64401;SDS011;50724;42.376;23.768;2023-06-19T15:17:50;6.53;;;3.87;;
64401;SDS011;50724;42.376;23.768;2023-06-19T15:20:51;5.85;;;3.67;;
64401;SDS011;50724;42.376;23.768;2023-06-19T15:23:54;6.40;;;3.67;;
64401;SDS011;50724;42.376;23.768;2023-06-19T15:26:55;5.90;;;3.88;;
64401;SDS011;50724;42.376;23.768;2023-06-19T15:29:59;6.43;;;3.85;;
64401;SDS011;50724;42.376;23.768;2023-06-19T15:32:59;7.60;;;3.63;;
64401;SDS011;50724;42.376;23.768;2023-06-19T15:36:00;6.43;;;3.77;;
64401;SDS011;50724;42.376;23.768;2023-06-19T15:39:00;6.60;;;4.00;;
64401;SDS011;50724;42.376;23.768;2023-06-19T15:42:01;7.75;;;3.72;;
64401;SDS011;50724;42.376;23.768;2023-06-19T15:45:02;7.47;;;3.65;;
64401;SDS011;50724;42.376;23.768;2023-06-19T15:51:04;7.38;;;3.63;;
64401;SDS011;50724;42.376;23.768;2023-06-19T15:54:04;6.57;;;3.60;;
64401;SDS011;50724;42.376;23.768;2023-06-19T15:57:05;6.15;;;4.00;;
64401;SDS011;50724;42.376;23.768;2023-06-19T16:00:05;8.32;;;4.50;;
64401;SDS011;50724;42.376;23.768;2023-06-19T16:03:06;9.13;;;4.00;;
64401;SDS011;50724;42.376;23.768;2023-06-19T16:06:07;5.38;;;3.58;;
64401;SDS011;50724;42.376;23.768;2023-06-19T16:09:07;6.55;;;3.75;;
64401;SDS011;50724;42.376;23.768;2023-06-19T16:12:08;5.88;;;3.70;;
64401;SDS011;50724;42.376;23.768;2023-06-19T16:15:09;9.05;;;3.97;;
64401;SDS011;50724;42.376;23.768;2023-06-19T16:18:13;5.97;;;3.80;;
64401;SDS011;50724;42.376;23.768;2023-06-19T16:21:13;6.68;;;3.72;;
64401;SDS011;50724;42.376;23.768;2023-06-19T16:24:15;5.97;;;3.80;;
64401;SDS011;50724;42.376;23.768;2023-06-19T16:27:15;6.93;;;3.63;;
64401;SDS011;50724;42.376;23.768;2023-06-19T16:30:16;6.27;;;3.60;;
64401;SDS011;50724;42.376;23.768;2023-06-19T16:33:16;6.55;;;3.67;;
64401;SDS011;50724;42.376;23.768;2023-06-19T16:36:17;7.45;;;3.67;;
64401;SDS011;50724;42.376;23.768;2023-06-19T16:39:19;6.85;;;3.90;;
64401;SDS011;50724;42.376;23.768;2023-06-19T16:42:20;6.63;;;3.70;;
64401;SDS011;50724;42.376;23.768;2023-06-19T16:45:22;6.45;;;4.15;;
64401;SDS011;50724;42.376;23.768;2023-06-19T16:48:26;6.13;;;3.72;;
64401;SDS011;50724;42.376;23.768;2023-06-19T16:51:26;5.40;;;3.60;;
64401;SDS011;50724;42.376;23.768;2023-06-19T16:54:27;5.80;;;3.40;;
64401;SDS011;50724;42.376;23.768;2023-06-19T16:57:27;6.35;;;3.58;;
64401;SDS011;50724;42.376;23.768;2023-06-19T17:00:32;5.25;;;3.33;;
64401;SDS011;50724;42.376;23.768;2023-06-19T17:03:33;5.70;;;3.50;;
64401;SDS011;50724;42.376;23.768;2023-06-19T17:06:34;5.73;;;3.53;;
64401;SDS011;50724;42.376;23.768;2023-06-19T17:09:34;7.05;;;3.70;;
64401;SDS011;50724;42.376;23.768;2023-06-19T17:12:35;5.90;;;3.73;;
64401;SDS011;50724;42.376;23.768;2023-06-19T17:15:35;7.73;;;3.83;;
64401;SDS011;50724;42.376;23.768;2023-06-19T17:18:35;5.65;;;3.70;;
64401;SDS011;50724;42.376;23.768;2023-06-19T17:21:36;6.65;;;3.92;;
64401;SDS011;50724;42.376;23.768;2023-06-19T17:24:36;6.43;;;4.07;;
64401;SDS011;50724;42.376;23.768;2023-06-19T17:27:39;5.85;;;3.40;;
64401;SDS011;50724;42.376;23.768;2023-06-19T17:30:40;7.85;;;3.65;;
64401;SDS011;50724;42.376;23.768;2023-06-19T17:33:40;7.03;;;3.60;;
64401;SDS011;50724;42.376;23.768;2023-06-19T17:36:49;7.10;;;4.17;;
64401;SDS011;50724;42.376;23.768;2023-06-19T17:39:49;4.78;;;2.67;;
64401;SDS011;50724;42.376;23.768;2023-06-19T17:42:50;6.70;;;4.13;;
64401;SDS011;50724;42.376;23.768;2023-06-19T17:45:50;6.57;;;3.93;;
64401;SDS011;50724;42.376;23.768;2023-06-19T17:48:51;6.30;;;3.90;;
64401;SDS011;50724;42.376;23.768;2023-06-19T17:51:51;6.90;;;3.50;;
64401;SDS011;50724;42.376;23.768;2023-06-19T17:54:51;8.07;;;4.30;;
64401;SDS011;50724;42.376;23.768;2023-06-19T17:57:53;7.28;;;4.00;;
64401;SDS011;50724;42.376;23.768;2023-06-19T18:00:53;8.52;;;4.10;;
64401;SDS011;50724;42.376;23.768;2023-06-19T18:03:54;6.60;;;4.03;;